createdAt,value
2022-12-01T00:01:41.025Z,11.03
2022-12-01T00:04:08.035Z,11.03
2022-12-01T00:06:37.334Z,11.03
2022-12-01T00:09:22.717Z,11.10
2022-12-01T00:11:49.904Z,11.17
2022-12-01T00:14:17.580Z,11.33
2022-12-01T00:16:47.726Z,11.43
2022-12-01T00:19:14.887Z,11.80
2022-12-01T00:21:44.209Z,11.43
2022-12-01T00:24:19.177Z,11.73
2022-12-01T00:26:49.697Z,11.13
2022-12-01T00:29:45.329Z,11.97
2022-12-01T00:32:12.815Z,11.23
2022-12-01T00:34:40.309Z,12.07
2022-12-01T00:37:07.350Z,11.77
2022-12-01T00:39:34.370Z,11.73
2022-12-01T00:42:01.349Z,11.93
2022-12-01T00:44:33.614Z,12.23
2022-12-01T00:47:00.674Z,11.90
2022-12-01T00:49:27.711Z,12.53
2022-12-01T00:51:55.002Z,12.07
2022-12-01T00:54:22.193Z,12.17
2022-12-01T00:56:49.644Z,12.63
2022-12-01T00:59:16.707Z,12.77
2022-12-01T01:01:43.698Z,12.13
2022-12-01T01:04:10.698Z,12.60
2022-12-01T01:06:37.891Z,12.60
2022-12-01T01:09:04.868Z,12.83
2022-12-01T01:11:31.739Z,12.27
2022-12-01T01:13:59.984Z,12.97
2022-12-01T01:16:27.112Z,12.63
2022-12-01T01:18:54.141Z,13.37
2022-12-01T01:21:22.106Z,13.83
2022-12-01T01:23:50.487Z,13.27
2022-12-01T01:26:19.210Z,13.00
2022-12-01T01:28:47.320Z,13.30
2022-12-01T01:31:17.591Z,13.23
2022-12-01T01:33:47.885Z,13.20
2022-12-01T01:36:18.769Z,13.20
2022-12-01T01:38:46.934Z,13.23
2022-12-01T01:41:14.604Z,13.67
2022-12-01T01:43:43.745Z,13.53
2022-12-01T01:46:22.751Z,12.27
2022-12-01T01:49:10.830Z,12.83
2022-12-01T01:51:49.291Z,12.83
2022-12-01T01:54:28.345Z,13.10
2022-12-01T01:56:57.691Z,12.17
2022-12-01T01:59:33.242Z,13.50
2022-12-01T02:02:06.755Z,13.20
2022-12-01T02:04:40.532Z,13.33
2022-12-01T02:07:11.712Z,13.77
2022-12-01T02:09:38.660Z,14.03
2022-12-01T02:12:56.703Z,12.70
2022-12-01T02:15:32.410Z,13.47
2022-12-01T02:18:21.564Z,13.40
2022-12-01T02:21:07.159Z,13.50
2022-12-01T02:23:56.117Z,13.83
2022-12-01T02:26:59.638Z,13.47
2022-12-01T02:29:55.258Z,13.27
2022-12-01T02:32:49.175Z,13.40
2022-12-01T02:35:22.409Z,12.57
2022-12-01T02:38:03.816Z,13.40
2022-12-01T02:41:12.073Z,13.70
2022-12-01T02:44:18.691Z,12.97
2022-12-01T02:46:55.463Z,13.37
2022-12-01T02:49:30.547Z,12.80
2022-12-01T02:51:58.591Z,13.20
2022-12-01T02:54:28.587Z,14.33
2022-12-01T02:56:55.421Z,12.73
2022-12-01T02:59:22.640Z,13.43
2022-12-01T03:01:50.915Z,13.53
2022-12-01T03:04:48.322Z,13.23
2022-12-01T03:07:36.531Z,13.30
2022-12-01T03:10:38.442Z,13.30
2022-12-01T03:13:24.317Z,12.90
2022-12-01T03:16:04.974Z,13.73
2022-12-01T03:18:58.975Z,13.77
2022-12-01T03:21:26.123Z,13.77
2022-12-01T03:24:08.108Z,13.77
2022-12-01T03:26:37.613Z,13.63
2022-12-01T03:29:15.858Z,13.67
2022-12-01T03:31:50.922Z,12.80
2022-12-01T03:34:31.335Z,13.27
2022-12-01T03:37:07.112Z,13.47
2022-12-01T03:39:36.147Z,13.37
2022-12-01T03:42:13.774Z,13.63
2022-12-01T03:44:52.074Z,14.10
2022-12-01T03:47:23.423Z,12.43
2022-12-01T03:49:52.169Z,13.80
2022-12-01T03:52:30.821Z,14.10
2022-12-01T03:55:12.110Z,12.97
2022-12-01T03:57:49.164Z,13.03
2022-12-01T04:00:19.930Z,12.77
2022-12-01T04:02:46.998Z,13.23
2022-12-01T04:05:14.280Z,13.97
2022-12-01T04:07:41.315Z,14.60
2022-12-01T04:10:08.892Z,14.53
2022-12-01T04:12:35.868Z,13.57
2022-12-01T04:15:09.354Z,13.67
2022-12-01T04:17:36.606Z,14.23
2022-12-01T04:20:06.640Z,13.17
2022-12-01T04:22:39.239Z,13.87
2022-12-01T04:25:07.292Z,14.10
2022-12-01T04:27:34.927Z,13.10
2022-12-01T04:30:02.413Z,13.37
2022-12-01T04:32:29.561Z,13.93
2022-12-01T04:34:56.588Z,13.13
2022-12-01T04:37:23.571Z,14.07
2022-12-01T04:39:50.742Z,13.80
2022-12-01T04:42:20.419Z,13.40
2022-12-01T04:44:47.378Z,14.00
2022-12-01T04:47:14.279Z,12.70
2022-12-01T04:49:41.216Z,14.07
2022-12-01T04:52:11.234Z,14.13
2022-12-01T04:54:38.281Z,14.27
2022-12-01T04:57:05.218Z,13.73
2022-12-01T04:59:35.055Z,14.30
2022-12-01T05:02:04.132Z,13.30
2022-12-01T05:04:32.765Z,14.50
2022-12-01T05:07:02.890Z,14.77
2022-12-01T05:09:29.888Z,14.10
2022-12-01T05:11:57.007Z,13.63
2022-12-01T05:14:26.641Z,14.60
2022-12-01T05:16:55.122Z,14.67
2022-12-01T05:19:40.496Z,15.73
2022-12-01T05:22:07.445Z,14.93
2022-12-01T05:24:34.285Z,15.03
2022-12-01T05:27:01.398Z,14.87
2022-12-01T05:29:28.310Z,15.67
2022-12-01T05:31:55.279Z,14.40
2022-12-01T05:34:22.476Z,14.63
2022-12-01T05:36:49.420Z,14.77
2022-12-01T05:39:16.293Z,14.17
2022-12-01T05:41:43.326Z,13.90
2022-12-01T05:44:10.404Z,14.40
2022-12-01T05:46:37.568Z,14.70
2022-12-01T05:49:04.546Z,14.77
2022-12-01T05:51:31.456Z,14.63
2022-12-01T05:54:00.118Z,14.27
2022-12-01T05:56:27.180Z,14.17
2022-12-01T05:58:54.625Z,14.67
2022-12-01T06:01:21.606Z,14.43
2022-12-01T06:03:48.574Z,14.80
2022-12-01T06:06:32.490Z,14.03
2022-12-01T06:08:59.573Z,14.03
2022-12-01T06:11:26.467Z,13.70
2022-12-01T06:13:53.385Z,14.13
2022-12-01T06:16:20.353Z,13.87
2022-12-01T06:18:49.615Z,13.70
2022-12-01T06:21:16.656Z,13.27
2022-12-01T06:23:45.857Z,13.83
2022-12-01T06:26:12.811Z,13.10
2022-12-01T06:28:39.720Z,13.67
2022-12-01T06:31:06.731Z,13.73
2022-12-01T06:33:34.146Z,12.67
2022-12-01T06:36:02.727Z,13.20
2022-12-01T06:38:34.691Z,13.27
2022-12-01T06:41:02.774Z,13.20
2022-12-01T06:43:30.271Z,14.13
2022-12-01T06:46:01.735Z,14.20
2022-12-01T06:48:30.219Z,13.43
2022-12-01T06:51:00.828Z,12.93
2022-12-01T06:53:29.058Z,13.40
2022-12-01T06:56:04.449Z,13.13
2022-12-01T06:58:32.054Z,12.47
2022-12-01T07:00:59.571Z,12.33
2022-12-01T07:03:33.012Z,12.97
2022-12-01T07:06:01.509Z,12.07
2022-12-01T07:08:29.966Z,12.03
2022-12-01T07:11:05.422Z,12.23
2022-12-01T07:13:33.986Z,12.57
2022-12-01T07:16:07.049Z,12.50
2022-12-01T07:18:34.694Z,12.43
2022-12-01T07:21:07.281Z,11.80
2022-12-01T07:23:34.597Z,11.87
2022-12-01T07:26:02.956Z,12.50
2022-12-01T07:28:30.070Z,13.27
2022-12-01T07:31:15.373Z,12.93
2022-12-01T07:33:43.552Z,13.03
2022-12-01T07:36:22.069Z,12.37
2022-12-01T07:38:48.953Z,12.43
2022-12-01T07:41:21.153Z,11.93
2022-12-01T07:43:48.680Z,12.33
2022-12-01T07:46:23.585Z,11.47
2022-12-01T07:48:52.012Z,12.23
2022-12-01T07:51:20.439Z,12.20
2022-12-01T07:53:49.393Z,14.50
2022-12-01T07:56:17.392Z,13.07
2022-12-01T07:58:44.703Z,12.57
2022-12-01T08:01:18.063Z,12.70
2022-12-01T08:03:45.398Z,12.53
2022-12-01T08:06:12.839Z,13.50
2022-12-01T08:08:42.848Z,12.47
2022-12-01T08:11:25.182Z,12.67
2022-12-01T08:13:53.463Z,12.63
2022-12-01T08:16:24.846Z,12.83
2022-12-01T08:18:52.415Z,15.73
2022-12-01T08:21:27.479Z,14.77
2022-12-01T08:24:26.075Z,14.27
2022-12-01T08:26:59.082Z,14.07
2022-12-01T08:29:26.415Z,13.70
2022-12-01T08:31:53.860Z,15.00
2022-12-01T08:34:27.075Z,14.20
2022-12-01T08:36:54.176Z,14.83
2022-12-01T08:39:21.421Z,14.73
2022-12-01T08:42:00.591Z,14.53
2022-12-01T08:44:28.628Z,15.80
2022-12-01T08:47:03.594Z,15.93
2022-12-01T08:49:42.381Z,16.17
2022-12-01T08:52:22.149Z,15.73
2022-12-01T08:54:49.167Z,16.00
2022-12-01T08:57:16.222Z,15.43
2022-12-01T08:59:49.317Z,14.70
2022-12-01T09:02:21.459Z,15.43
2022-12-01T09:04:54.892Z,16.13
2022-12-01T09:07:26.817Z,15.83
2022-12-01T09:10:05.636Z,15.83
2022-12-01T09:12:33.482Z,15.47
2022-12-01T09:15:18.156Z,16.77
2022-12-01T09:17:48.026Z,15.50
2022-12-01T09:20:20.980Z,16.30
2022-12-01T09:22:54.953Z,17.27
2022-12-01T09:25:22.038Z,17.50
2022-12-01T09:27:51.249Z,17.37
2022-12-01T09:30:18.417Z,16.70
2022-12-01T09:32:48.457Z,16.53
2022-12-01T09:35:17.683Z,17.63
2022-12-01T09:37:47.823Z,16.23
2022-12-01T09:40:15.755Z,15.87
2022-12-01T09:42:45.312Z,15.80
2022-12-01T09:45:25.716Z,13.67
2022-12-01T09:47:56.103Z,14.10
2022-12-01T09:50:25.386Z,13.50
2022-12-01T09:52:57.747Z,13.47
2022-12-01T09:55:26.042Z,13.60
2022-12-01T09:57:57.802Z,14.83
2022-12-01T10:00:33.020Z,15.07
2022-12-01T10:03:12.279Z,14.43
2022-12-01T10:06:25.985Z,15.47
2022-12-01T10:08:57.680Z,14.77
2022-12-01T10:11:35.765Z,15.03
2022-12-01T10:14:04.597Z,15.43
2022-12-01T10:16:42.952Z,15.97
2022-12-01T10:19:35.938Z,17.30
2022-12-01T10:22:18.144Z,17.43
2022-12-01T10:25:13.404Z,17.23
2022-12-01T10:28:02.638Z,18.33
2022-12-01T10:30:29.652Z,16.93
2022-12-01T10:33:19.866Z,16.97
2022-12-01T10:35:48.766Z,16.77
2022-12-01T10:38:35.973Z,17.43
2022-12-01T10:41:04.356Z,17.90
2022-12-01T10:43:51.047Z,17.77
2022-12-01T10:46:45.765Z,17.57
2022-12-01T10:49:15.139Z,17.93
2022-12-01T10:51:57.108Z,17.70
2022-12-01T10:54:39.469Z,18.97
2022-12-01T10:57:16.887Z,18.27
2022-12-01T11:00:00.324Z,19.77
2022-12-01T11:02:30.923Z,18.83
2022-12-01T11:05:04.532Z,20.17
2022-12-01T11:07:50.761Z,19.13
2022-12-01T11:10:35.825Z,20.00
2022-12-01T11:13:28.459Z,19.17
2022-12-01T11:15:58.392Z,19.40
2022-12-01T11:18:35.910Z,18.87
2022-12-01T11:21:09.299Z,19.23
2022-12-01T11:23:47.607Z,18.63
2022-12-01T11:26:32.473Z,19.20
2022-12-01T11:29:20.878Z,19.57
2022-12-01T11:31:50.580Z,19.57
2022-12-01T11:34:38.475Z,21.40
2022-12-01T11:37:15.743Z,20.23
2022-12-01T11:39:45.146Z,21.77
2022-12-01T11:42:11.973Z,22.20
2022-12-01T11:44:55.297Z,22.00
2022-12-01T11:47:25.499Z,20.50
2022-12-01T11:50:01.754Z,21.53
2022-12-01T11:52:34.779Z,22.10
2022-12-01T11:55:13.915Z,21.40
2022-12-01T11:57:45.905Z,22.23
2022-12-01T12:00:19.756Z,21.07
2022-12-01T12:03:04.781Z,23.80
2022-12-01T12:06:31.974Z,25.10
2022-12-01T12:09:23.860Z,22.80
2022-12-01T12:12:12.504Z,21.87
2022-12-01T12:15:00.843Z,22.90
2022-12-01T12:17:38.306Z,22.77
2022-12-01T12:20:18.301Z,23.30
2022-12-01T12:23:04.436Z,23.53
2022-12-01T12:25:49.656Z,22.90
2022-12-01T12:28:39.364Z,21.60
2022-12-01T12:31:33.489Z,21.10
2022-12-01T12:34:15.219Z,22.77
2022-12-01T12:37:15.339Z,22.33
2022-12-01T12:39:51.260Z,21.40
2022-12-01T12:42:44.269Z,20.77
2022-12-01T12:45:32.902Z,18.60
2022-12-01T12:49:03.533Z,17.73
2022-12-01T12:51:39.292Z,17.97
2022-12-01T12:54:22.549Z,16.97
2022-12-01T12:56:55.711Z,17.03
2022-12-01T12:59:46.733Z,15.47
2022-12-01T13:02:56.265Z,14.00
2022-12-01T13:08:58.092Z,12.87
2022-12-01T13:11:44.479Z,12.40
2022-12-01T13:14:28.839Z,11.80
2022-12-01T13:17:28.784Z,10.90
2022-12-01T13:20:13.629Z,9.90
2022-12-01T13:22:47.490Z,8.90
2022-12-01T13:25:35.674Z,8.20
2022-12-01T13:28:05.851Z,8.40
2022-12-01T13:30:39.977Z,8.77
2022-12-01T13:33:16.727Z,8.20
2022-12-01T13:35:43.998Z,8.60
2022-12-01T13:38:29.870Z,8.20
2022-12-01T13:41:47.561Z,7.50
2022-12-01T13:44:25.263Z,7.73
2022-12-01T13:47:16.477Z,7.70
2022-12-01T13:49:46.966Z,7.87
2022-12-01T13:52:23.635Z,7.33
2022-12-01T13:55:09.490Z,7.20
2022-12-01T13:57:59.464Z,6.47
2022-12-01T14:00:35.116Z,6.33
2022-12-01T14:03:20.468Z,7.07
2022-12-01T14:05:53.476Z,7.63
2022-12-01T14:08:44.665Z,6.63
2022-12-01T14:11:24.479Z,7.57
2022-12-01T14:14:21.319Z,7.37
2022-12-01T14:16:56.237Z,7.73
2022-12-01T14:19:44.703Z,8.33
2022-12-01T14:22:33.092Z,7.67
2022-12-01T14:25:08.098Z,7.90
2022-12-01T14:27:43.097Z,7.50
2022-12-01T14:30:41.648Z,8.50
2022-12-01T14:33:40.002Z,7.90
2022-12-01T14:36:23.716Z,7.83
2022-12-01T14:39:00.017Z,7.80
2022-12-01T14:41:43.584Z,8.23
2022-12-01T14:44:27.393Z,8.20
2022-12-01T14:47:10.422Z,8.20
2022-12-01T14:49:56.400Z,8.80
2022-12-01T14:52:29.267Z,8.20
2022-12-01T14:54:58.931Z,8.70
2022-12-01T14:57:32.692Z,8.90
2022-12-01T15:00:11.038Z,10.10
2022-12-01T15:02:44.336Z,9.90
2022-12-01T15:05:17.664Z,9.87
2022-12-01T15:07:47.605Z,10.77
2022-12-01T15:10:26.463Z,10.17
2022-12-01T15:12:54.248Z,10.07
2022-12-01T15:15:26.352Z,10.60
2022-12-01T15:17:55.857Z,11.13
2022-12-01T15:20:36.837Z,11.23
2022-12-01T15:23:15.188Z,10.90
2022-12-01T15:25:45.064Z,10.87
2022-12-01T15:28:30.865Z,11.53
2022-12-01T15:30:59.123Z,11.53
2022-12-01T15:33:41.514Z,11.30
2022-12-01T15:36:13.252Z,12.03
2022-12-01T15:38:44.114Z,10.83
2022-12-01T15:41:29.170Z,11.83
2022-12-01T15:44:05.681Z,11.67
2022-12-01T15:46:38.791Z,11.07
2022-12-01T15:49:33.593Z,11.63
2022-12-01T15:52:07.095Z,12.63
2022-12-01T15:55:01.351Z,12.47
2022-12-01T15:57:34.851Z,13.07
2022-12-01T16:00:02.365Z,13.50
2022-12-01T16:02:32.911Z,13.80
2022-12-01T16:05:20.020Z,14.53
2022-12-01T16:08:12.705Z,14.10
2022-12-01T16:10:36.923Z,15.17
2022-12-01T16:13:38.172Z,15.70
2022-12-01T16:16:31.452Z,16.03
2022-12-01T16:19:09.257Z,15.97
2022-12-01T16:21:47.060Z,16.90
2022-12-01T16:24:18.192Z,16.43
2022-12-01T16:26:51.631Z,16.43
2022-12-01T16:29:24.715Z,16.83
2022-12-01T16:32:22.030Z,17.03
2022-12-01T16:34:47.496Z,15.50
2022-12-01T16:37:15.454Z,15.77
2022-12-01T16:39:43.213Z,15.67
2022-12-01T16:42:15.759Z,16.30
2022-12-01T16:44:44.804Z,16.37
2022-12-01T16:47:18.577Z,16.47
2022-12-01T16:49:46.080Z,15.00
2022-12-01T16:52:44.175Z,16.33
2022-12-01T16:55:30.491Z,15.63
2022-12-01T16:57:57.827Z,15.03
2022-12-01T17:00:24.905Z,14.87
2022-12-01T17:02:55.074Z,15.20
2022-12-01T17:05:37.861Z,15.63
2022-12-01T17:08:11.064Z,14.83
2022-12-01T17:14:57.611Z,13.60
2022-12-01T17:20:52.603Z,14.10
2022-12-01T17:23:33.509Z,14.77
2022-12-01T17:26:18.960Z,13.80
2022-12-01T17:28:49.678Z,17.17
2022-12-01T17:31:33.199Z,15.13
2022-12-01T17:34:55.799Z,16.07
2022-12-01T17:42:35.092Z,15.33
2022-12-01T17:49:11.737Z,15.27
2022-12-01T17:51:45.895Z,16.20
2022-12-01T17:54:50.629Z,15.83
2022-12-01T17:57:31.760Z,16.30
2022-12-01T18:00:17.410Z,15.90
2022-12-01T18:03:12.378Z,16.40
2022-12-01T18:05:59.052Z,16.57
2022-12-01T18:08:59.172Z,16.10
2022-12-01T18:12:03.187Z,17.27
2022-12-01T18:14:51.096Z,16.80
2022-12-01T18:17:34.155Z,16.43
2022-12-01T18:20:09.742Z,17.00
2022-12-01T18:22:45.326Z,17.53
2022-12-01T18:25:18.720Z,17.03
2022-12-01T18:28:18.599Z,16.93
2022-12-01T18:30:49.775Z,17.60
2022-12-01T18:33:17.120Z,18.57
2022-12-01T18:36:35.520Z,18.27
2022-12-01T18:39:05.533Z,17.70
2022-12-01T18:41:33.810Z,18.30
2022-12-01T18:44:16.996Z,18.73
2022-12-01T18:47:03.387Z,18.93
2022-12-01T18:49:55.748Z,18.30
2022-12-01T18:52:43.536Z,18.33
2022-12-01T18:55:24.097Z,19.17
2022-12-01T19:01:10.295Z,18.07
2022-12-01T19:07:12.555Z,17.23
2022-12-01T19:10:12.969Z,17.43
2022-12-01T19:16:31.416Z,14.93
2022-12-01T19:22:59.863Z,12.87
2022-12-01T19:26:44.343Z,12.37
2022-12-01T19:29:15.074Z,12.17
2022-12-01T20:20:48.569Z,15.33
2022-12-01T20:23:19.861Z,14.23
2022-12-01T20:25:56.195Z,13.87
2022-12-01T20:28:26.482Z,12.93
2022-12-01T20:31:18.769Z,13.43
2022-12-01T20:33:46.695Z,13.43
2022-12-01T20:36:34.558Z,13.13
2022-12-01T20:39:46.933Z,13.40
2022-12-01T20:42:28.940Z,12.77
2022-12-01T20:46:06.430Z,13.50
2022-12-01T20:48:36.901Z,13.40
2022-12-01T20:51:27.638Z,13.50
2022-12-01T20:54:29.503Z,13.50
2022-12-01T21:04:14.999Z,14.27
2022-12-01T21:05:17.240Z,14.43
2022-12-01T21:15:50.330Z,14.23
2022-12-01T21:22:58.156Z,13.97
2022-12-01T21:25:37.402Z,14.17
2022-12-01T21:28:21.968Z,15.13
2022-12-01T21:31:00.307Z,14.70
2022-12-01T21:33:38.690Z,14.83
2022-12-01T21:41:02.045Z,14.30
2022-12-01T21:43:38.806Z,14.50
2022-12-01T22:30:51.019Z,14.23
2022-12-01T23:16:41.685Z,13.10
2022-12-01T23:19:09.867Z,13.20
2022-12-01T23:21:37.761Z,12.67
2022-12-01T23:24:06.519Z,13.83
2022-12-01T23:26:34.090Z,12.43
2022-12-01T23:29:02.048Z,13.53
2022-12-01T23:31:30.286Z,12.43
2022-12-01T23:34:00.580Z,11.67
2022-12-01T23:36:29.954Z,11.87
2022-12-01T23:39:02.952Z,11.67
2022-12-01T23:41:51.726Z,11.40
2022-12-01T23:44:48.426Z,11.47
2022-12-01T23:47:20.522Z,10.60
2022-12-01T23:50:03.037Z,11.30
2022-12-01T23:52:36.550Z,11.33
2022-12-01T23:55:24.798Z,11.20
2022-12-01T23:57:53.224Z,10.90
